Time;durP1;ratioP1;P1;durP2;ratioP2;P2;SDS_P1;SDS_P2;PMS_P1;PMS_P2;Temp;Humidity;BMP_temperature;BMP_pressure;BME280_temperature;BME280_humidity;BME280_pressure;Samples;Min_cycle;Max_cycle;Signal;HPM_P1;HPM_P2
2022/03/09 04:02:43;;;;;;;1.20;1.10;;;3.00;54.80;;;;;;5055838;23;20545;-74
2022/03/09 04:05:09;;;;;;;1.30;1.20;;;3.00;55.00;;;;;;4993710;28;20445;-74
2022/03/09 04:07:36;;;;;;;1.40;1.30;;;3.00;54.90;;;;;;4993662;28;20496;-74
2022/03/09 04:10:04;;;;;;;1.10;1.00;;;3.00;54.70;;;;;;4993658;28;20499;-74
2022/03/09 04:12:30;;;;;;;1.20;1.10;;;3.00;54.70;;;;;;4976511;28;20485;-74
2022/03/09 04:14:57;;;;;;;1.10;1.00;;;3.10;54.60;;;;;;4975523;28;20458;-74
2022/03/09 04:17:24;;;;;;;1.10;1.00;;;3.10;54.40;;;;;;4973875;28;20945;-74
2022/03/09 04:19:52;;;;;;;1.30;1.20;;;3.10;54.20;;;;;;4974151;28;20454;-73
2022/03/09 04:22:18;;;;;;;1.20;1.10;;;3.10;53.90;;;;;;4974113;28;20536;-73
2022/03/09 04:24:45;;;;;;;1.20;1.10;;;3.10;53.40;;;;;;4974070;28;20450;-74
2022/03/09 04:27:12;;;;;;;1.33;1.23;;;3.10;53.70;;;;;;4973994;28;20447;-74
2022/03/09 04:29:39;;;;;;;1.17;1.07;;;3.10;53.70;;;;;;4973712;28;20959;-74
2022/03/09 04:32:06;;;;;;;1.37;1.27;;;3.00;53.60;;;;;;4973855;28;20490;-74
2022/03/09 04:34:32;;;;;;;1.47;1.37;;;3.00;54.30;;;;;;4973961;28;20450;-73
2022/03/09 04:37:00;;;;;;;1.30;1.20;;;3.00;54.60;;;;;;4973987;28;20450;-73
2022/03/09 04:39:27;;;;;;;1.43;1.33;;;2.90;54.80;;;;;;4974041;28;20454;-73
2022/03/09 04:41:54;;;;;;;1.40;1.30;;;2.90;55.10;;;;;;4973939;28;20524;-73
2022/03/09 04:44:20;;;;;;;1.20;1.10;;;2.90;55.20;;;;;;4974504;28;20505;-74
2022/03/09 04:46:47;;;;;;;1.40;1.30;;;2.80;55.30;;;;;;4973929;28;20504;-74
2022/03/09 04:49:14;;;;;;;1.40;1.30;;;2.80;54.80;;;;;;4973952;28;20520;-73
2022/03/09 04:51:40;;;;;;;1.37;1.27;;;2.80;54.50;;;;;;4974063;28;20556;-73
2022/03/09 04:54:08;;;;;;;1.20;1.10;;;2.80;54.50;;;;;;4973936;28;20490;-73
2022/03/09 04:56:35;;;;;;;1.57;1.47;;;2.80;54.40;;;;;;4975245;28;20450;-74
2022/03/09 04:59:02;;;;;;;1.40;1.30;;;2.60;54.50;;;;;;4977525;28;20450;-74
2022/03/09 05:01:29;;;;;;;1.50;1.40;;;2.60;54.90;;;;;;4977213;28;20489;-74
2022/03/09 05:03:55;;;;;;;1.53;1.43;;;2.60;54.90;;;;;;4977464;28;20882;-74
2022/03/09 05:06:22;;;;;;;1.40;1.30;;;2.50;54.80;;;;;;4977428;28;20454;-74
2022/03/09 05:08:49;;;;;;;1.40;1.30;;;2.50;55.30;;;;;;4977505;28;20449;-74
2022/03/09 05:11:17;;;;;;;1.43;1.33;;;2.50;55.30;;;;;;4977020;28;21064;-73
2022/03/09 05:13:43;;;;;;;1.53;1.43;;;2.50;55.40;;;;;;4977696;28;20485;-73
2022/03/09 05:16:10;;;;;;;1.40;1.30;;;2.60;55.60;;;;;;4977241;28;20442;-73
2022/03/09 05:18:40;;;;;;;1.30;1.20;;;2.60;55.60;;;;;;4977146;28;20453;-74
2022/03/09 05:21:07;;;;;;;1.30;1.20;;;2.60;55.40;;;;;;4976976;28;20509;-73
2022/03/09 05:23:34;;;;;;;1.27;1.17;;;2.60;55.60;;;;;;4977030;28;20501;-73
2022/03/09 05:26:00;;;;;;;1.10;1.00;;;2.60;55.60;;;;;;4976931;28;20506;-73
2022/03/09 05:28:28;;;;;;;1.50;1.37;;;2.50;55.40;;;;;;4976835;28;20450;-74
2022/03/09 05:30:55;;;;;;;1.70;1.60;;;2.60;55.70;;;;;;4976701;28;20462;-74
2022/03/09 05:33:21;;;;;;;1.40;1.30;;;2.60;55.70;;;;;;4976755;28;20512;-74
2022/03/09 05:35:48;;;;;;;1.50;1.40;;;2.60;55.50;;;;;;4976723;28;20458;-74
2022/03/09 05:38:15;;;;;;;1.30;1.20;;;2.70;55.30;;;;;;4976582;28;20505;-74
2022/03/09 05:40:42;;;;;;;1.27;1.17;;;2.70;55.00;;;;;;4976424;28;20450;-73
2022/03/09 05:43:09;;;;;;;1.40;1.30;;;2.70;54.90;;;;;;4976485;28;20528;-73
2022/03/09 05:45:37;;;;;;;1.50;1.40;;;2.70;54.70;;;;;;4976256;28;20965;-73
2022/03/09 05:48:04;;;;;;;1.60;1.50;;;2.60;54.70;;;;;;4976480;28;20453;-74
2022/03/09 05:50:31;;;;;;;1.60;1.50;;;2.50;55.00;;;;;;4976500;28;20450;-73
2022/03/09 05:52:58;;;;;;;1.90;1.80;;;2.50;55.40;;;;;;4976457;28;20485;-74
2022/03/09 05:55:24;;;;;;;2.07;1.97;;;2.50;55.60;;;;;;4976541;28;20454;-73
2022/03/09 05:57:51;;;;;;;2.00;1.90;;;2.40;56.20;;;;;;4976462;28;20454;-73
2022/03/09 06:00:18;;;;;;;1.80;1.70;;;2.40;56.50;;;;;;4976396;28;20453;-74
2022/03/09 06:02:46;;;;;;;1.50;1.40;;;2.50;56.80;;;;;;4975905;28;20478;-73
2022/03/09 06:05:12;;;;;;;1.40;1.30;;;2.60;56.50;;;;;;4976279;28;20466;-73
2022/03/09 06:07:39;;;;;;;1.30;1.20;;;2.90;55.60;;;;;;4975721;28;20508;-74
2022/03/09 06:10:07;;;;;;;1.50;1.40;;;3.10;55.00;;;;;;4976213;28;20449;-74
2022/03/09 06:12:34;;;;;;;1.43;1.33;;;3.30;54.60;;;;;;4975996;28;20490;-73
2022/03/09 06:15:01;;;;;;;1.43;1.33;;;3.40;54.60;;;;;;4976128;28;20880;-74
2022/03/09 06:17:27;;;;;;;1.80;1.70;;;3.60;53.90;;;;;;4975895;28;20825;-73
2022/03/09 06:19:55;;;;;;;1.37;1.27;;;3.90;53.60;;;;;;4975646;28;20957;-73
2022/03/09 06:22:22;;;;;;;1.20;1.10;;;4.30;52.60;;;;;;4975628;28;20997;-73
2022/03/09 06:24:49;;;;;;;1.90;1.57;;;4.70;51.40;;;;;;4976088;28;20449;-73
2022/03/09 06:27:15;;;;;;;1.20;1.10;;;5.00;50.80;;;;;;4977102;28;20446;-74
2022/03/09 06:29:42;;;;;;;1.50;1.40;;;5.50;50.60;;;;;;4976237;28;20450;-74
2022/03/09 06:32:09;;;;;;;1.50;1.40;;;6.30;48.50;;;;;;4976410;28;20497;-74
2022/03/09 06:34:36;;;;;;;1.20;1.10;;;7.50;46.60;;;;;;4976391;28;20477;-74
2022/03/09 06:37:04;;;;;;;1.30;1.20;;;9.00;44.10;;;;;;4976757;28;20462;-74
2022/03/09 06:39:31;;;;;;;1.30;1.20;;;10.30;41.30;;;;;;4976480;28;20438;-74
2022/03/09 06:41:58;;;;;;;1.30;1.20;;;11.80;39.30;;;;;;4976599;28;20497;-74
2022/03/09 06:44:24;;;;;;;1.33;1.23;;;13.20;37.00;;;;;;4976496;28;20866;-76
2022/03/09 06:46:51;;;;;;;1.37;1.27;;;14.40;35.20;;;;;;4976740;28;20504;-74
2022/03/09 06:49:18;;;;;;;1.60;1.50;;;15.40;33.30;;;;;;4976512;28;20446;-74
2022/03/09 06:51:44;;;;;;;1.60;1.50;;;15.70;32.00;;;;;;4976177;28;20498;-75
2022/03/09 06:54:12;;;;;;;1.43;1.33;;;15.40;32.60;;;;;;4976354;28;20481;-75
2022/03/09 06:56:39;;;;;;;1.33;1.23;;;15.60;32.60;;;;;;4976180;28;20876;-75
2022/03/09 06:59:06;;;;;;;1.20;1.10;;;16.70;31.90;;;;;;4976454;28;20457;-75
2022/03/09 07:01:33;;;;;;;1.70;1.23;;;17.50;30.40;;;;;;4976227;28;20902;-75
2022/03/09 07:03:59;;;;;;;1.30;1.20;;;18.00;29.80;;;;;;4975847;28;20500;-74
2022/03/09 07:06:27;;;;;;;1.33;1.23;;;18.60;28.50;;;;;;4975137;28;20946;-74
2022/03/09 07:08:53;;;;;;;2.27;1.30;;;18.70;28.70;;;;;;4975358;28;20453;-75
2022/03/09 07:11:21;;;;;;;4.57;2.43;;;19.80;28.20;;;;;;4975247;28;20458;-74
2022/03/09 07:13:48;;;;;;;4.30;2.10;;;20.70;26.90;;;;;;4975259;28;20512;-75
2022/03/09 07:16:14;;;;;;;2.80;1.50;;;21.40;25.90;;;;;;4975270;28;20461;-75
2022/03/09 07:18:41;;;;;;;1.20;1.10;;;21.90;25.70;;;;;;4975261;28;20446;-75
2022/03/09 07:21:08;;;;;;;1.40;1.30;;;22.60;25.40;;;;;;4974319;28;20521;-75
2022/03/09 07:23:34;;;;;;;1.27;1.17;;;23.10;24.40;;;;;;4975329;28;20446;-75
2022/03/09 07:26:02;;;;;;;1.40;1.30;;;23.90;24.20;;;;;;4975175;28;20454;-75
2022/03/09 07:28:30;;;;;;;1.80;1.00;;;24.30;23.70;;;;;;4975121;28;20818;-75
2022/03/09 07:30:57;;;;;;;1.47;1.37;;;24.50;23.20;;;;;;4975037;28;20474;-75
2022/03/09 07:33:24;;;;;;;1.20;1.10;;;24.90;23.20;;;;;;4975062;28;20533;-75
2022/03/09 07:35:50;;;;;;;1.20;1.10;;;25.60;22.80;;;;;;4975262;28;20497;-73
2022/03/09 07:38:17;;;;;;;1.30;1.20;;;25.40;22.40;;;;;;4975190;28;20446;-73
2022/03/09 07:40:44;;;;;;;1.30;1.20;;;25.30;22.20;;;;;;4975553;28;20469;-75
2022/03/09 07:43:11;;;;;;;1.20;1.10;;;24.90;22.50;;;;;;4974952;28;20446;-75
2022/03/09 07:45:39;;;;;;;1.37;1.27;;;24.30;22.80;;;;;;4974654;28;21004;-75
2022/03/09 07:48:06;;;;;;;1.20;1.10;;;24.80;22.70;;;;;;4974921;28;20454;-75
2022/03/09 07:50:33;;;;;;;1.40;1.30;;;24.80;22.20;;;;;;4974785;28;20450;-75
2022/03/09 07:52:59;;;;;;;1.20;1.10;;;23.80;23.10;;;;;;4974824;28;20517;-75
2022/03/09 07:55:26;;;;;;;1.40;1.30;;;23.50;23.30;;;;;;4974820;28;20896;-75
2022/03/09 07:57:53;;;;;;;1.30;1.20;;;22.20;23.60;;;;;;4974491;28;20937;-74
2022/03/09 08:00:19;;;;;;;1.70;1.60;;;20.10;26.10;;;;;;4974732;28;20450;-75
2022/03/09 08:02:48;;;;;;;1.50;1.40;;;17.70;27.50;;;;;;4974172;28;20541;-75
2022/03/09 08:05:16;;;;;;;1.43;1.33;;;16.90;29.00;;;;;;4974644;28;20461;-75
2022/03/09 08:07:45;;;;;;;1.40;1.30;;;16.40;30.00;;;;;;4974605;28;20450;-75
2022/03/09 08:10:12;;;;;;;1.10;1.00;;;15.00;31.20;;;;;;4974436;28;20953;-75
2022/03/09 08:12:39;;;;;;;1.47;1.20;;;14.00;32.70;;;;;;4974438;28;20465;-74
2022/03/09 08:15:07;;;;;;;1.10;1.00;;;13.70;33.30;;;;;;4974500;28;20457;-75
2022/03/09 08:17:34;;;;;;;1.90;1.20;;;13.50;34.40;;;;;;4974273;28;20951;-74
2022/03/09 08:20:02;;;;;;;1.50;1.30;;;12.50;35.30;;;;;;4974509;28;20458;-74
2022/03/09 08:22:29;;;;;;;1.10;1.00;;;12.40;35.80;;;;;;4974435;28;20525;-74
2022/03/09 08:24:56;;;;;;;1.40;1.30;;;11.30;36.60;;;;;;4974506;28;20446;-74
2022/03/09 08:27:22;;;;;;;1.10;1.00;;;10.40;38.40;;;;;;4974558;28;20485;-75
2022/03/09 08:29:50;;;;;;;1.10;1.00;;;9.80;39.40;;;;;;4974441;28;20450;-75
2022/03/09 08:32:18;;;;;;;1.20;1.10;;;9.50;40.30;;;;;;4976950;28;20485;-74
2022/03/09 08:34:46;;;;;;;1.50;1.40;;;8.60;41.80;;;;;;4978208;28;20485;-71
2022/03/09 08:37:14;;;;;;;1.57;1.47;;;8.60;42.10;;;;;;4978320;28;20453;-71
2022/03/09 08:39:43;;;;;;;1.87;1.20;;;8.40;42.20;;;;;;4978237;28;20446;-76
2022/03/09 08:42:10;;;;;;;1.30;1.20;;;7.90;42.80;;;;;;4978007;28;20478;-73
2022/03/09 08:44:36;;;;;;;1.27;1.17;;;7.90;42.80;;;;;;4977848;28;20945;-74
2022/03/09 08:47:04;;;;;;;1.40;1.30;;;7.90;42.90;;;;;;4978081;28;20571;-74
2022/03/09 08:49:33;;;;;;;1.40;1.30;;;7.80;43.10;;;;;;4978047;28;20477;-74
2022/03/09 08:52:00;;;;;;;1.20;1.10;;;8.00;43.50;;;;;;4977874;28;20473;-74
2022/03/09 08:54:28;;;;;;;1.47;1.20;;;8.00;44.10;;;;;;4977801;28;20474;-74
2022/03/09 08:56:54;;;;;;;1.60;1.50;;;8.30;43.40;;;;;;4977854;28;20453;-74
2022/03/09 08:59:21;;;;;;;1.40;1.30;;;8.40;43.20;;;;;;4977778;28;20450;-74
2022/03/09 09:01:48;;;;;;;1.20;1.10;;;8.30;43.70;;;;;;4977495;28;20549;-74
2022/03/09 09:04:16;;;;;;;1.33;1.23;;;8.50;43.30;;;;;;4977789;28;20496;-74
2022/03/09 09:06:43;;;;;;;1.20;1.10;;;8.50;44.00;;;;;;4977709;28;20457;-74
2022/03/09 09:09:10;;;;;;;1.50;1.40;;;8.80;42.50;;;;;;4977343;28;20828;-74
2022/03/09 09:11:38;;;;;;;1.27;1.17;;;9.10;41.90;;;;;;4977535;28;20470;-72
2022/03/09 09:14:05;;;;;;;1.40;1.30;;;8.90;41.20;;;;;;4977203;28;20997;-73
2022/03/09 09:16:32;;;;;;;1.20;1.10;;;8.80;41.30;;;;;;4977633;28;20446;-73
2022/03/09 09:18:58;;;;;;;1.47;1.37;;;8.50;42.30;;;;;;4977531;28;20506;-73
2022/03/09 09:21:25;;;;;;;1.37;1.27;;;8.50;42.60;;;;;;4977093;28;20843;-73
2022/03/09 09:23:52;;;;;;;1.60;1.50;;;8.50;42.30;;;;;;4976930;28;21009;-72
2022/03/09 09:26:19;;;;;;;1.30;1.20;;;8.20;42.90;;;;;;4977383;28;20454;-73
2022/03/09 09:28:47;;;;;;;1.33;1.23;;;8.30;43.30;;;;;;4977297;28;20534;-73
2022/03/09 09:31:13;;;;;;;1.30;1.20;;;8.30;43.20;;;;;;4977191;28;20474;-73
2022/03/09 09:33:40;;;;;;;1.37;1.27;;;8.50;42.90;;;;;;4977150;28;20482;-73
2022/03/09 09:36:07;;;;;;;1.20;1.10;;;8.50;43.20;;;;;;4977140;28;20445;-73
2022/03/09 09:38:34;;;;;;;1.40;1.30;;;8.60;43.50;;;;;;4977192;28;20459;-73
2022/03/09 09:41:01;;;;;;;1.30;1.20;;;8.70;42.20;;;;;;4977058;28;20882;-73
2022/03/09 09:43:28;;;;;;;1.30;1.20;;;8.80;42.90;;;;;;4976162;28;20446;-72
2022/03/09 09:45:57;;;;;;;1.20;1.10;;;9.10;41.80;;;;;;4977062;28;20446;-72
2022/03/09 09:48:23;;;;;;;1.50;1.40;;;9.30;40.80;;;;;;4977030;28;20450;-73
2022/03/09 09:50:52;;;;;;;1.50;1.40;;;9.40;40.40;;;;;;4976874;28;20462;-73
2022/03/09 09:53:19;;;;;;;1.50;1.40;;;9.60;41.50;;;;;;4976781;28;20485;-72
2022/03/09 09:55:45;;;;;;;1.70;1.60;;;9.40;39.10;;;;;;4976872;28;20453;-72
2022/03/09 09:58:12;;;;;;;1.37;1.27;;;9.20;39.70;;;;;;4976861;28;20450;-72
2022/03/09 10:00:39;;;;;;;1.43;1.33;;;9.10;39.50;;;;;;4976478;28;20505;-72
2022/03/09 10:03:07;;;;;;;1.20;1.10;;;8.80;41.20;;;;;;4976471;28;20917;-72
2022/03/09 10:05:34;;;;;;;1.77;1.67;;;9.00;40.50;;;;;;4977133;28;20465;-73
2022/03/09 10:08:17;;;;;;;1.60;1.50;;;8.90;40.10;;;;;;4976764;28;20972;-73
2022/03/09 10:10:46;;;;;;;1.60;1.50;;;8.70;41.00;;;;;;4976751;28;20528;-72
2022/03/09 10:13:15;;;;;;;1.60;1.50;;;8.90;40.90;;;;;;4977844;28;20481;-73
2022/03/09 10:15:42;;;;;;;1.40;1.30;;;8.90;40.80;;;;;;4976530;28;20453;-73
2022/03/09 10:18:19;;;;;;;1.47;1.37;;;8.90;41.30;;;;;;4976511;28;20458;-73
2022/03/09 10:20:47;;;;;;;1.60;1.50;;;8.60;41.30;;;;;;4976492;28;20469;-73
2022/03/09 10:23:14;;;;;;;1.23;1.13;;;8.80;41.70;;;;;;4976465;28;20524;-72
2022/03/09 10:25:41;;;;;;;1.60;1.50;;;9.00;42.20;;;;;;4976434;28;20504;-73
2022/03/09 10:28:10;;;;;;;1.80;1.70;;;9.20;41.40;;;;;;4976372;28;20505;-73
2022/03/09 10:30:39;;;;;;;1.30;1.20;;;9.30;40.70;;;;;;4976508;28;20449;-72
2022/03/09 10:33:08;;;;;;;1.50;1.40;;;9.30;40.80;;;;;;4976261;28;20457;-73
2022/03/09 10:35:45;;;;;;;1.30;1.20;;;9.40;40.70;;;;;;4976296;28;20457;-73
2022/03/09 10:38:27;;;;;;;1.50;1.40;;;9.50;40.00;;;;;;4975957;28;20784;-73
2022/03/09 10:40:56;;;;;;;1.50;1.40;;;9.60;40.30;;;;;;4976067;28;20498;-73
2022/03/09 10:43:25;;;;;;;1.40;1.30;;;9.70;40.40;;;;;;4975722;28;20474;-73
2022/03/09 10:46:04;;;;;;;1.40;1.30;;;9.80;39.30;;;;;;4976616;28;20470;-73
2022/03/09 10:48:52;;;;;;;1.70;1.60;;;9.90;39.30;;;;;;4975903;28;20453;-73
2022/03/09 10:51:29;;;;;;;1.60;1.50;;;10.00;39.40;;;;;;4975773;28;20569;-74
2022/03/09 10:53:56;;;;;;;1.30;1.20;;;10.10;39.30;;;;;;4975292;28;20953;-73
2022/03/09 10:56:23;;;;;;;1.50;1.40;;;10.20;38.60;;;;;;4975903;28;20501;-73
2022/03/09 10:58:50;;;;;;;1.23;1.13;;;10.20;37.70;;;;;;4975735;28;20450;-73
2022/03/09 11:01:17;;;;;;;1.67;1.57;;;10.20;37.70;;;;;;4975485;28;20485;-73
2022/03/09 11:03:45;;;;;;;1.60;1.50;;;10.40;37.70;;;;;;4975698;28;20889;-73
2022/03/09 11:06:12;;;;;;;1.53;1.43;;;10.30;37.70;;;;;;4975633;28;20855;-72
2022/03/09 11:08:41;;;;;;;1.73;1.63;;;10.50;38.50;;;;;;4975418;28;20513;-72
2022/03/09 11:11:09;;;;;;;1.40;1.30;;;10.60;39.10;;;;;;4975248;28;20465;-73
2022/03/09 11:13:38;;;;;;;1.30;1.20;;;10.80;38.80;;;;;;4975348;28;20446;-72
2022/03/09 11:16:06;;;;;;;1.80;1.70;;;11.00;38.70;;;;;;4975512;28;20512;-73
2022/03/09 11:18:34;;;;;;;1.40;1.30;;;11.00;38.00;;;;;;4976056;28;20450;-73
2022/03/09 11:21:02;;;;;;;1.50;1.40;;;11.10;38.30;;;;;;4975355;28;20497;-70
2022/03/09 11:23:31;;;;;;;1.40;1.30;;;11.20;40.80;;;;;;4975294;28;20453;-71
2022/03/09 11:26:02;;;;;;;1.40;1.30;;;11.20;38.00;;;;;;4975254;28;20450;-72
2022/03/09 11:28:31;;;;;;;1.63;1.53;;;11.10;37.70;;;;;;4974918;28;20905;-71
2022/03/09 11:31:00;;;;;;;1.53;1.43;;;11.30;37.60;;;;;;4975014;28;20466;-71
2022/03/09 11:33:41;;;;;;;1.40;1.30;;;11.50;37.60;;;;;;4975010;28;20834;-71
2022/03/09 11:36:33;;;;;;;1.80;1.70;;;11.50;37.40;;;;;;4974810;28;20442;-71
2022/03/09 11:39:18;;;;;;;1.60;1.50;;;11.20;37.50;;;;;;4975015;28;20426;-72
2022/03/09 11:41:46;;;;;;;1.43;1.33;;;11.30;38.50;;;;;;4974600;28;20469;-72
2022/03/09 11:44:29;;;;;;;1.50;1.40;;;11.60;39.10;;;;;;4974511;28;21005;-71
2022/03/09 11:47:07;;;;;;;1.77;1.67;;;11.70;38.60;;;;;;4974795;28;20451;-70
2022/03/09 11:49:36;;;;;;;1.63;1.53;;;11.70;37.40;;;;;;4975976;28;20438;-70
2022/03/09 11:52:08;;;;;;;1.70;1.60;;;11.70;38.00;;;;;;4974725;28;20568;-70
2022/03/09 11:54:41;;;;;;;1.73;1.63;;;11.70;37.80;;;;;;4974903;28;20481;-71
2022/03/09 11:57:09;;;;;;;1.50;1.40;;;11.90;37.70;;;;;;4974464;28;20454;-70
2022/03/09 11:59:36;;;;;;;2.00;1.90;;;12.10;38.20;;;;;;4974771;28;20457;-69
2022/03/09 12:02:24;;;;;;;1.80;1.70;;;12.10;36.90;;;;;;4974502;28;20836;-69
2022/03/09 12:04:59;;;;;;;1.83;1.73;;;11.90;36.90;;;;;;4974925;28;20508;-71
2022/03/09 12:07:59;;;;;;;1.70;1.60;;;12.10;36.30;;;;;;4974874;28;20445;-72
2022/03/09 12:10:44;;;;;;;1.43;1.33;;;12.50;35.20;;;;;;4974352;28;20910;-71
2022/03/09 12:13:35;;;;;;;1.70;1.60;;;12.60;35.20;;;;;;4975005;28;20461;-71
2022/03/09 12:16:14;;;;;;;1.70;1.60;;;12.60;35.50;;;;;;4974393;28;20973;-71
2022/03/09 12:18:50;;;;;;;1.50;1.40;;;12.80;35.90;;;;;;4974701;28;20527;-71
2022/03/09 12:21:19;;;;;;;1.90;1.80;;;12.90;35.70;;;;;;4974575;28;20524;-71
2022/03/09 12:24:26;;;;;;;1.60;1.50;;;13.00;35.60;;;;;;4974862;28;20453;-71
2022/03/09 12:26:54;;;;;;;1.63;1.53;;;13.00;35.50;;;;;;4975178;28;20808;-71
2022/03/09 12:29:40;;;;;;;1.40;1.30;;;13.10;35.20;;;;;;4974951;28;20965;-71
2022/03/09 12:32:10;;;;;;;1.70;1.60;;;13.40;34.90;;;;;;4974866;28;20470;-71
2022/03/09 12:34:39;;;;;;;1.50;1.40;;;13.80;34.00;;;;;;4974890;28;20497;-71
2022/03/09 12:37:08;;;;;;;1.73;1.63;;;14.00;34.20;;;;;;4975636;28;20450;-71
2022/03/09 12:39:35;;;;;;;1.80;1.70;;;14.30;33.90;;;;;;4974640;28;20536;-71
2022/03/09 12:42:03;;;;;;;1.73;1.63;;;14.50;33.00;;;;;;4974645;28;20465;-71
2022/03/09 12:44:32;;;;;;;1.83;1.73;;;14.80;32.40;;;;;;4975051;28;20450;-71
2022/03/09 12:47:03;;;;;;;1.63;1.53;;;14.70;32.00;;;;;;4974496;28;20453;-71
2022/03/09 12:49:35;;;;;;;2.10;1.80;;;14.40;32.00;;;;;;4974470;28;20438;-72
2022/03/09 12:52:06;;;;;;;1.90;1.80;;;14.30;33.40;;;;;;4974253;28;21004;-71
2022/03/09 12:54:41;;;;;;;1.80;1.70;;;14.70;34.80;;;;;;4974074;28;20831;-71
2022/03/09 12:57:13;;;;;;;1.67;1.57;;;15.00;31.00;;;;;;4974100;28;20470;-70
2022/03/09 12:59:42;;;;;;;1.70;1.60;;;15.00;31.90;;;;;;4974095;28;20434;-71
2022/03/09 13:02:10;;;;;;;1.70;1.60;;;15.00;30.60;;;;;;4974032;28;20481;-71
2022/03/09 13:04:37;;;;;;;1.50;1.40;;;14.90;30.40;;;;;;4974083;28;20447;-71
2022/03/09 13:07:15;;;;;;;1.60;1.50;;;14.80;30.30;;;;;;4974151;28;20504;-71
2022/03/09 13:09:44;;;;;;;1.60;1.50;;;14.70;29.90;;;;;;4974141;28;20457;-71
2022/03/09 13:12:12;;;;;;;1.57;1.47;;;14.60;29.40;;;;;;4974104;28;20473;-70
2022/03/09 13:14:42;;;;;;;1.70;1.60;;;14.90;30.80;;;;;;4974165;28;20489;-71
2022/03/09 13:17:11;;;;;;;1.60;1.50;;;15.40;29.50;;;;;;4973965;28;20534;-72
2022/03/09 13:19:39;;;;;;;1.50;1.40;;;15.70;29.20;;;;;;4976881;28;20488;-71
2022/03/09 13:22:06;;;;;;;1.80;1.70;;;15.90;27.90;;;;;;4977863;28;20477;-72
2022/03/09 13:24:34;;;;;;;1.57;1.47;;;15.80;27.50;;;;;;4978195;28;20489;-72
2022/03/09 13:27:15;;;;;;;1.63;1.53;;;15.70;27.10;;;;;;4977542;28;20476;-72
2022/03/09 13:29:43;;;;;;;1.40;1.30;;;15.80;27.10;;;;;;4977372;28;20444;-72
2022/03/09 13:32:13;;;;;;;1.50;1.40;;;16.10;27.60;;;;;;4977239;28;20552;-72
2022/03/09 13:34:45;;;;;;;1.70;1.60;;;16.70;30.00;;;;;;4977283;28;20474;-71
2022/03/09 13:37:18;;;;;;;1.80;1.70;;;16.60;26.00;;;;;;4977293;28;20532;-71
2022/03/09 13:39:46;;;;;;;1.40;1.30;;;16.50;26.20;;;;;;4977400;28;20558;-71
2022/03/09 13:42:19;;;;;;;1.57;1.47;;;16.70;27.00;;;;;;4977127;28;20466;-72
2022/03/09 13:45:00;;;;;;;1.50;1.40;;;16.40;26.50;;;;;;4977096;28;20481;-72
2022/03/09 13:47:28;;;;;;;1.70;1.60;;;16.00;26.70;;;;;;4977030;28;20493;-72
2022/03/09 13:49:55;;;;;;;1.77;1.67;;;16.40;28.20;;;;;;4976624;28;21018;-71
2022/03/09 13:52:24;;;;;;;1.30;1.20;;;16.90;26.80;;;;;;4976509;28;20884;-72
2022/03/09 13:54:51;;;;;;;1.80;1.70;;;17.10;25.20;;;;;;4976833;28;20489;-72
2022/03/09 13:57:37;;;;;;;1.60;1.50;;;17.40;26.00;;;;;;4976536;28;20957;-72
2022/03/09 14:00:23;;;;;;;1.70;1.60;;;17.90;24.70;;;;;;4976792;28;20489;-72
2022/03/09 14:02:55;;;;;;;1.60;1.50;;;18.10;24.50;;;;;;4976374;28;20465;-72
2022/03/09 14:05:28;;;;;;;1.53;1.43;;;18.80;24.60;;;;;;4976673;28;20441;-72
2022/03/09 14:07:54;;;;;;;1.50;1.40;;;19.50;23.20;;;;;;4976738;28;20437;-72
2022/03/09 14:10:25;;;;;;;1.33;1.23;;;20.30;22.30;;;;;;4976598;28;20449;-73
2022/03/09 14:12:52;;;;;;;1.90;1.20;;;21.50;22.00;;;;;;4976559;28;20493;-73
2022/03/09 14:15:19;;;;;;;1.30;1.20;;;22.70;20.20;;;;;;4976380;28;20898;-73
2022/03/09 14:17:46;;;;;;;1.17;1.07;;;23.50;20.00;;;;;;4976522;28;20442;-73
2022/03/09 14:20:14;;;;;;;1.37;1.27;;;24.60;19.00;;;;;;4976314;28;20504;-73
2022/03/09 14:22:42;;;;;;;1.10;1.00;;;25.70;18.00;;;;;;4976236;28;20462;-73
2022/03/09 14:25:10;;;;;;;1.17;1.07;;;27.00;17.70;;;;;;4976265;28;20492;-73
2022/03/09 14:27:37;;;;;;;1.40;1.30;;;27.40;17.20;;;;;;4975886;28;20860;-73
2022/03/09 14:30:05;;;;;;;1.27;1.17;;;27.60;16.70;;;;;;4975473;28;20876;-73
2022/03/09 14:32:32;;;;;;;1.33;1.23;;;28.10;17.00;;;;;;4976168;28;20501;-73
2022/03/09 14:34:59;;;;;;;1.97;1.77;;;29.30;17.30;;;;;;4975998;28;20485;-73
2022/03/09 14:37:27;;;;;;;2.00;1.40;;;29.80;17.10;;;;;;4976196;28;20872;-73
2022/03/09 14:39:54;;;;;;;1.50;1.40;;;29.40;17.00;;;;;;4976015;28;20449;-73
2022/03/09 14:42:20;;;;;;;1.60;1.20;;;28.00;17.10;;;;;;4975868;28;20470;-73
2022/03/09 14:44:47;;;;;;;1.23;1.13;;;27.80;16.90;;;;;;4975575;28;20858;-72
2022/03/09 14:47:14;;;;;;;1.13;1.00;;;27.50;16.90;;;;;;4975570;28;21001;-73
2022/03/09 14:49:41;;;;;;;1.20;1.10;;;27.70;17.70;;;;;;4975856;28;20442;-73
2022/03/09 14:52:09;;;;;;;1.30;1.20;;;28.50;17.60;;;;;;4975817;28;20874;-73
2022/03/09 14:54:37;;;;;;;1.10;1.00;;;28.00;15.40;;;;;;4975598;28;20453;-73
2022/03/09 14:57:04;;;;;;;1.20;1.10;;;27.40;15.90;;;;;;4975748;28;20500;-73
2022/03/09 14:59:32;;;;;;;1.20;1.10;;;27.10;16.60;;;;;;4975711;28;20453;-72
2022/03/09 15:01:59;;;;;;;1.10;1.00;;;27.00;16.40;;;;;;4975197;28;20568;-71
2022/03/09 15:04:27;;;;;;;1.10;1.00;;;27.00;16.60;;;;;;4975910;28;20461;-72
2022/03/09 15:06:54;;;;;;;1.40;1.30;;;26.70;15.00;;;;;;4975648;28;20450;-74
2022/03/09 15:09:21;;;;;;;1.23;1.10;;;26.50;16.90;;;;;;4975475;28;20454;-72
2022/03/09 15:11:49;;;;;;;1.13;1.03;;;25.80;17.60;;;;;;4975219;28;20478;-72
2022/03/09 15:14:16;;;;;;;1.20;1.10;;;25.80;16.90;;;;;;4976096;28;20524;-74
2022/03/09 15:16:43;;;;;;;1.20;1.10;;;25.90;16.80;;;;;;4975490;28;20474;-73
2022/03/09 15:19:10;;;;;;;1.10;1.00;;;26.50;16.80;;;;;;4975524;28;20453;-74
2022/03/09 15:21:38;;;;;;;1.60;1.10;;;26.80;16.20;;;;;;4975650;28;20469;-74
2022/03/09 15:24:05;;;;;;;1.10;1.00;;;26.80;15.40;;;;;;4975391;28;20486;-73
2022/03/09 15:26:32;;;;;;;1.10;1.00;;;26.20;15.50;;;;;;4975299;28;20446;-73
2022/03/09 15:29:02;;;;;;;1.03;0.93;;;25.30;15.40;;;;;;4975229;28;20513;-73
2022/03/09 15:31:29;;;;;;;1.10;1.00;;;25.30;16.00;;;;;;4974651;28;21036;-73
2022/03/09 15:33:56;;;;;;;1.20;1.10;;;25.40;16.40;;;;;;4974599;28;20942;-73
2022/03/09 15:36:25;;;;;;;1.17;1.03;;;25.10;16.50;;;;;;4975048;28;20541;-73
2022/03/09 15:38:52;;;;;;;1.20;1.10;;;24.50;16.60;;;;;;4975076;28;20464;-73
2022/03/09 15:41:19;;;;;;;0.97;0.87;;;24.00;17.50;;;;;;4974098;28;20466;-73
2022/03/09 15:43:47;;;;;;;1.33;1.23;;;23.30;17.10;;;;;;4974784;28;20524;-73
2022/03/09 15:46:15;;;;;;;1.20;1.10;;;22.50;17.40;;;;;;4974816;28;20446;-73
2022/03/09 15:48:42;;;;;;;1.27;1.17;;;21.80;18.60;;;;;;4974571;28;20450;-72
2022/03/09 15:51:08;;;;;;;1.30;1.20;;;21.20;19.00;;;;;;4974657;28;20525;-72
2022/03/09 15:53:35;;;;;;;1.20;1.10;;;20.60;19.30;;;;;;4974665;28;20450;-72
2022/03/09 15:56:02;;;;;;;1.40;1.30;;;19.70;19.20;;;;;;4974625;28;20485;-72
2022/03/09 15:58:30;;;;;;;1.70;1.30;;;18.50;19.50;;;;;;4975054;28;20454;-73
2022/03/09 16:00:56;;;;;;;1.30;1.20;;;17.90;20.40;;;;;;4974363;28;20494;-73
2022/03/09 16:03:24;;;;;;;1.27;1.17;;;17.20;21.00;;;;;;4974631;28;20470;-72
2022/03/09 16:05:51;;;;;;;1.40;1.30;;;16.70;21.10;;;;;;4974541;28;20453;-73
2022/03/09 16:08:18;;;;;;;1.50;1.40;;;16.20;21.50;;;;;;4974609;28;20481;-72
2022/03/09 16:10:45;;;;;;;1.30;1.20;;;15.80;21.70;;;;;;4974581;28;20472;-73
2022/03/09 16:13:12;;;;;;;1.20;1.10;;;15.80;21.90;;;;;;5093829;23;20473;-71
2022/03/09 16:15:39;;;;;;;1.40;1.30;;;15.60;21.70;;;;;;4993727;28;21042;-70
2022/03/09 16:18:06;;;;;;;1.50;1.40;;;15.10;22.40;;;;;;4994047;28;20460;-72
2022/03/09 16:20:35;;;;;;;1.27;1.17;;;15.20;22.70;;;;;;4994049;28;20496;-72
2022/03/09 16:23:02;;;;;;;1.30;1.20;;;15.00;22.20;;;;;;4993102;28;20476;-73
2022/03/09 16:25:29;;;;;;;1.20;1.10;;;14.70;22.50;;;;;;4974514;28;20446;-73
2022/03/09 16:27:57;;;;;;;1.30;1.20;;;14.70;22.60;;;;;;4974601;28;20450;-71
2022/03/09 16:30:25;;;;;;;1.50;1.40;;;14.50;22.50;;;;;;4974561;28;20450;-71
2022/03/09 16:32:52;;;;;;;1.23;1.13;;;14.50;22.70;;;;;;4974477;28;20476;-72
2022/03/09 16:35:19;;;;;;;1.60;1.50;;;14.60;23.10;;;;;;4974363;28;20489;-71
2022/03/09 16:37:47;;;;;;;1.20;1.10;;;14.70;23.00;;;;;;4974684;28;20520;-72
2022/03/09 16:40:14;;;;;;;1.30;1.20;;;14.80;23.10;;;;;;4974561;28;20450;-73
2022/03/09 16:42:42;;;;;;;1.10;1.00;;;14.80;23.00;;;;;;4974232;28;20938;-72
2022/03/09 16:45:11;;;;;;;1.60;1.50;;;14.80;24.80;;;;;;4974525;28;20506;-71
2022/03/09 16:47:37;;;;;;;1.20;1.10;;;14.80;25.80;;;;;;4974622;28;20458;-72
2022/03/09 16:50:05;;;;;;;1.23;1.13;;;14.80;27.60;;;;;;4974211;28;20829;-72
2022/03/09 16:52:32;;;;;;;1.37;1.10;;;14.70;28.40;;;;;;4975890;28;20500;-71
2022/03/09 16:55:00;;;;;;;1.53;1.43;;;14.60;29.40;;;;;;4978265;28;20500;-71
2022/03/09 16:57:27;;;;;;;1.30;1.00;;;14.40;30.20;;;;;;4977923;28;21051;-72
2022/03/09 16:59:53;;;;;;;1.20;1.10;;;14.30;30.10;;;;;;4978016;28;20967;-72